createdAt,value
2017-12-11T00:00:03.309Z,90.86
2017-12-11T00:01:56.291Z,91.19
2017-12-11T00:02:56.346Z,91.38
2017-12-11T00:04:49.346Z,90.72
2017-12-11T00:05:49.381Z,91.10
2017-12-11T00:07:42.358Z,90.63
2017-12-11T00:08:42.409Z,90.53
2017-12-11T00:10:35.406Z,90.81
2017-12-11T00:11:35.437Z,91.29
2017-12-11T00:13:28.410Z,91.38
2017-12-11T00:14:28.466Z,90.77
2017-12-11T00:16:21.458Z,91.10
2017-12-11T00:17:21.499Z,91.53
2017-12-11T00:19:14.492Z,91.43
2017-12-11T00:20:14.528Z,91.62
2017-12-11T00:22:08.045Z,91.34
2017-12-11T00:23:08.062Z,91.05
2017-12-11T00:25:01.061Z,91.24
2017-12-11T00:26:01.094Z,91.43
2017-12-11T00:27:54.068Z,91.62
2017-12-11T00:28:54.124Z,91.53
2017-12-11T00:30:47.120Z,91.43
2017-12-11T00:31:47.153Z,91.62
2017-12-11T00:33:40.165Z,91.15
2017-12-11T00:34:40.180Z,91.29
2017-12-11T00:36:33.179Z,91.24
2017-12-11T00:37:33.217Z,91.43
2017-12-11T00:39:26.213Z,91.15
2017-12-11T00:40:26.246Z,91.34
2017-12-11T00:42:19.221Z,91.81
2017-12-11T00:43:19.275Z,91.81
2017-12-11T00:45:12.272Z,91.76
2017-12-11T00:46:12.308Z,91.24
2017-12-11T00:48:05.286Z,91.24
2017-12-11T00:49:05.342Z,91.24
2017-12-11T00:50:58.342Z,91.81
2017-12-11T00:51:58.376Z,91.62
2017-12-11T00:53:51.371Z,91.38
2017-12-11T00:54:51.406Z,91.19
2017-12-11T00:56:44.382Z,91.29
2017-12-11T00:57:44.435Z,90.53
2017-12-11T00:59:37.436Z,90.91
2017-12-11T01:00:37.473Z,91.00
2017-12-11T01:02:30.455Z,90.81
2017-12-11T01:03:30.510Z,90.72
2017-12-11T01:05:23.506Z,91.19
2017-12-11T01:06:23.541Z,91.29
2017-12-11T01:08:16.525Z,91.67
2017-12-11T01:09:16.583Z,91.95
2017-12-11T01:11:09.573Z,91.76
2017-12-11T01:12:09.610Z,91.76
2017-12-11T01:14:02.612Z,91.57
2017-12-11T01:15:02.650Z,91.57
2017-12-11T01:16:55.668Z,92.29
2017-12-11T01:17:55.669Z,92.29
2017-12-11T01:19:48.662Z,92.29
2017-12-11T01:20:48.701Z,92.19
2017-12-11T01:22:42.190Z,92.19
2017-12-11T01:23:42.236Z,91.81
2017-12-11T01:25:35.228Z,92.00
2017-12-11T01:26:35.260Z,91.91
2017-12-11T01:28:28.240Z,92.19
2017-12-11T01:29:28.290Z,92.19
2017-12-11T01:31:21.305Z,92.19
2017-12-11T01:32:21.321Z,92.29
2017-12-11T01:34:14.324Z,92.19
2017-12-11T01:35:14.359Z,92.57
2017-12-11T01:37:07.332Z,92.00
2017-12-11T01:38:07.385Z,92.85
2017-12-11T01:40:00.384Z,92.29
2017-12-11T01:41:00.418Z,92.76
2017-12-11T01:42:53.392Z,92.19
2017-12-11T01:43:53.445Z,92.19
2017-12-11T01:45:46.452Z,92.38
2017-12-11T01:46:46.476Z,92.29
2017-12-11T01:48:39.448Z,92.19
2017-12-11T01:49:39.504Z,91.72
2017-12-11T01:51:32.498Z,92.38
2017-12-11T01:52:32.531Z,92.47
2017-12-11T01:54:25.529Z,92.19
2017-12-11T01:55:25.563Z,92.47
2017-12-11T01:57:18.533Z,92.76
2017-12-11T01:58:18.589Z,92.38
2017-12-11T02:00:11.580Z,92.38
2017-12-11T02:01:11.637Z,92.19
2017-12-11T02:03:04.592Z,92.38
2017-12-11T02:04:04.652Z,92.00
2017-12-11T02:05:57.640Z,92.19
2017-12-11T02:06:57.672Z,92.19
2017-12-11T02:08:50.653Z,92.57
2017-12-11T02:09:50.703Z,92.38
2017-12-11T02:11:43.703Z,92.29
2017-12-11T02:12:43.733Z,92.57
2017-12-11T02:14:36.726Z,91.62
2017-12-11T02:15:36.760Z,91.62
2017-12-11T02:17:29.740Z,92.38
2017-12-11T02:18:29.794Z,92.10
2017-12-11T02:20:22.789Z,92.38
2017-12-11T02:21:22.823Z,92.76
2017-12-11T02:23:15.802Z,91.72
2017-12-11T02:24:15.863Z,92.10
2017-12-11T02:26:08.860Z,92.19
2017-12-11T02:27:08.895Z,91.91
2017-12-11T02:29:01.867Z,92.29
2017-12-11T02:30:01.921Z,91.43
2017-12-11T02:31:54.920Z,92.19
2017-12-11T02:32:54.954Z,92.57
2017-12-11T02:34:47.959Z,91.81
2017-12-11T02:35:47.987Z,92.19
2017-12-11T02:37:40.961Z,91.72
2017-12-11T02:38:41.016Z,91.43
2017-12-11T02:40:34.011Z,92.38
2017-12-11T02:41:34.046Z,92.38
2017-12-11T02:43:27.029Z,92.29
2017-12-11T02:44:27.080Z,92.29
2017-12-11T02:46:20.080Z,92.19
2017-12-11T02:47:20.113Z,92.19
2017-12-11T02:49:13.090Z,92.29
2017-12-11T02:50:13.144Z,92.57
2017-12-11T02:52:06.142Z,92.19
2017-12-11T02:53:06.175Z,92.47
2017-12-11T02:54:59.174Z,92.47
2017-12-11T02:55:59.210Z,92.19
2017-12-11T02:57:52.190Z,92.29
2017-12-11T02:58:52.261Z,92.38
2017-12-11T03:00:45.241Z,92.85
2017-12-11T03:01:45.280Z,92.85
2017-12-11T03:03:38.247Z,92.85
2017-12-11T03:04:38.301Z,92.29
2017-12-11T03:06:31.299Z,92.10
2017-12-11T03:07:31.333Z,92.38
2017-12-11T03:09:24.312Z,92.47
2017-12-11T03:10:24.368Z,92.19
2017-12-11T03:12:17.362Z,91.62
2017-12-11T03:13:17.396Z,91.43
2017-12-11T03:15:10.405Z,91.24
2017-12-11T03:16:10.429Z,91.34
2017-12-11T03:18:03.438Z,92.57
2017-12-11T03:19:03.464Z,92.29
2017-12-11T03:20:56.971Z,92.10
2017-12-11T03:21:57.001Z,92.38
2017-12-11T03:23:49.978Z,92.29
2017-12-11T03:24:50.049Z,91.91
2017-12-11T03:26:43.030Z,92.76
2017-12-11T03:27:43.065Z,91.91
2017-12-11T03:29:36.044Z,92.57
2017-12-11T03:30:36.100Z,92.00
2017-12-11T03:32:29.093Z,92.47
2017-12-11T03:33:29.127Z,92.29
2017-12-11T03:35:22.126Z,92.29
2017-12-11T03:36:22.162Z,92.85
2017-12-11T03:38:15.136Z,92.47
2017-12-11T03:39:15.192Z,92.38
2017-12-11T03:41:08.186Z,91.05
2017-12-11T03:42:08.221Z,91.62
2017-12-11T03:44:01.194Z,91.15
2017-12-11T03:45:01.248Z,91.53
2017-12-11T03:46:54.242Z,91.53
2017-12-11T03:47:54.276Z,91.43
2017-12-11T03:49:47.250Z,91.43
2017-12-11T03:50:47.305Z,91.62
2017-12-11T03:52:40.298Z,92.29
2017-12-11T03:53:40.331Z,91.81
2017-12-11T03:55:33.328Z,92.10
2017-12-11T03:56:33.363Z,91.91
2017-12-11T03:58:26.341Z,92.00
2017-12-11T03:59:26.395Z,92.00
2017-12-11T04:01:19.403Z,92.00
2017-12-11T04:02:19.429Z,92.29
2017-12-11T04:04:12.404Z,92.29
2017-12-11T04:05:12.459Z,92.85
2017-12-11T04:07:05.454Z,92.94
2017-12-11T04:08:05.490Z,92.94
2017-12-11T04:09:58.468Z,92.85
2017-12-11T04:10:58.521Z,92.76
2017-12-11T04:12:51.515Z,92.76
2017-12-11T04:13:51.555Z,92.66
2017-12-11T04:15:44.599Z,92.66
2017-12-11T04:16:44.577Z,92.76
2017-12-11T04:18:37.558Z,92.66
2017-12-11T04:19:37.608Z,92.38
2017-12-11T04:21:30.604Z,92.00
2017-12-11T04:22:30.638Z,91.72
2017-12-11T04:24:23.618Z,91.91
2017-12-11T04:25:23.671Z,92.00
2017-12-11T04:27:16.670Z,92.47
2017-12-11T04:28:16.706Z,92.57
2017-12-11T04:30:09.681Z,92.47
2017-12-11T04:31:09.736Z,92.57
2017-12-11T04:33:02.732Z,92.94
2017-12-11T04:34:02.767Z,93.04
2017-12-11T04:35:55.765Z,93.89
2017-12-11T04:36:55.798Z,94.08
2017-12-11T04:38:48.770Z,94.08
2017-12-11T04:39:48.824Z,93.99
2017-12-11T04:41:41.822Z,93.51
2017-12-11T04:42:41.856Z,94.18
2017-12-11T04:44:34.833Z,94.18
2017-12-11T04:45:34.888Z,94.18
2017-12-11T04:47:27.895Z,93.23
2017-12-11T04:48:27.927Z,92.47
2017-12-11T04:50:20.900Z,92.10
2017-12-11T04:51:20.954Z,92.19
2017-12-11T04:53:13.946Z,92.38
2017-12-11T04:54:13.981Z,92.10
2017-12-11T04:56:06.977Z,92.47
2017-12-11T04:57:07.030Z,92.43
2017-12-11T04:58:59.987Z,92.61
2017-12-11T05:00:00.050Z,93.09
2017-12-11T05:01:53.036Z,93.75
2017-12-11T05:02:53.069Z,94.32
2017-12-11T05:04:46.119Z,94.13
2017-12-11T05:05:46.110Z,93.94
2017-12-11T05:07:39.113Z,93.94
2017-12-11T05:08:39.143Z,93.56
2017-12-11T05:10:32.155Z,93.94
2017-12-11T05:11:32.170Z,94.13
2017-12-11T05:13:25.151Z,94.51
2017-12-11T05:14:25.203Z,94.23
2017-12-11T05:16:18.204Z,94.79
2017-12-11T05:17:18.232Z,94.60
2017-12-11T05:19:11.213Z,94.51
2017-12-11T05:20:11.265Z,93.94
2017-12-11T05:22:04.259Z,94.42
2017-12-11T05:23:04.290Z,94.23
2017-12-11T05:24:57.272Z,94.23
2017-12-11T05:25:57.322Z,94.23
2017-12-11T05:27:50.314Z,94.32
2017-12-11T05:28:50.348Z,94.70
2017-12-11T05:30:43.348Z,94.98
2017-12-11T05:31:43.383Z,94.89
2017-12-11T05:33:36.355Z,94.70
2017-12-11T05:34:36.409Z,94.60
2017-12-11T05:36:29.404Z,94.70
2017-12-11T05:37:29.442Z,94.98
2017-12-11T05:39:22.411Z,94.70
2017-12-11T05:40:22.466Z,94.70
2017-12-11T05:42:15.458Z,94.89
2017-12-11T05:43:16.470Z,94.60
2017-12-11T05:45:08.465Z,94.60
2017-12-11T05:46:08.518Z,94.51
2017-12-11T05:48:01.514Z,94.89
2017-12-11T05:49:01.546Z,95.26
2017-12-11T05:50:54.547Z,94.79
2017-12-11T05:51:54.586Z,94.42
2017-12-11T05:53:47.562Z,94.89
2017-12-11T05:54:47.619Z,94.89
2017-12-11T05:56:40.607Z,94.51
2017-12-11T05:57:40.639Z,94.79
2017-12-11T05:59:33.620Z,94.51
2017-12-11T06:00:33.671Z,94.70
2017-12-11T06:02:26.666Z,95.07
2017-12-11T06:03:26.705Z,94.42
2017-12-11T06:05:19.679Z,95.07
2017-12-11T06:06:19.732Z,94.98
2017-12-11T06:08:12.728Z,94.98
2017-12-11T06:09:12.754Z,94.70
2017-12-11T06:11:05.752Z,94.51
2017-12-11T06:12:05.787Z,94.70
2017-12-11T06:13:58.760Z,94.70
2017-12-11T06:14:58.814Z,94.79
2017-12-11T06:16:51.806Z,94.51
2017-12-11T06:17:51.842Z,94.70
2017-12-11T06:19:44.832Z,94.70
2017-12-11T06:20:44.876Z,94.70
2017-12-11T06:22:37.867Z,94.89
2017-12-11T06:23:37.901Z,94.51
2017-12-11T06:25:30.876Z,94.60
2017-12-11T06:26:30.930Z,94.98
2017-12-11T06:28:23.922Z,94.32
2017-12-11T06:29:23.955Z,94.32
2017-12-11T06:31:16.963Z,94.42
2017-12-11T06:32:16.984Z,94.42
2017-12-11T06:34:09.958Z,94.51
2017-12-11T06:35:10.011Z,94.60
2017-12-11T06:37:03.003Z,94.32
2017-12-11T06:38:03.040Z,94.70
2017-12-11T06:39:56.016Z,94.89
2017-12-11T06:40:56.069Z,94.70
2017-12-11T06:42:49.072Z,94.42
2017-12-11T06:43:49.097Z,94.60
2017-12-11T06:45:42.069Z,94.51
2017-12-11T06:46:42.124Z,94.04
2017-12-11T06:48:35.119Z,93.94
2017-12-11T06:49:35.157Z,94.23
2017-12-11T06:51:28.148Z,93.66
2017-12-11T06:52:28.184Z,93.94
2017-12-11T06:54:21.200Z,94.04
2017-12-11T06:55:21.248Z,93.85
2017-12-11T06:57:14.220Z,93.85
2017-12-11T06:58:14.252Z,93.94
2017-12-11T07:00:07.238Z,94.23
2017-12-11T07:01:07.289Z,94.42
2017-12-11T07:03:00.283Z,93.66
2017-12-11T07:04:00.318Z,93.94
2017-12-11T07:05:53.303Z,94.04
2017-12-11T07:06:53.349Z,93.94
2017-12-11T07:08:46.342Z,93.94
2017-12-11T07:09:46.377Z,93.47
2017-12-11T07:11:39.372Z,92.99
2017-12-11T07:12:39.409Z,93.85
2017-12-11T07:14:32.388Z,93.28
2017-12-11T07:15:32.436Z,92.71
2017-12-11T07:17:25.436Z,92.90
2017-12-11T07:18:25.468Z,93.85
2017-12-11T07:20:18.952Z,92.99
2017-12-11T07:21:19.000Z,92.71
2017-12-11T07:23:11.997Z,92.99
2017-12-11T07:24:12.032Z,92.99
2017-12-11T07:26:05.004Z,93.28
2017-12-11T07:27:05.058Z,93.09
2017-12-11T07:28:58.067Z,93.28
2017-12-11T07:29:58.081Z,93.18
2017-12-11T07:31:51.077Z,93.75
2017-12-11T07:32:51.112Z,93.28
2017-12-11T07:34:44.086Z,93.85
2017-12-11T07:35:44.357Z,93.56
2017-12-11T07:37:37.132Z,93.85
2017-12-11T07:38:37.167Z,93.85
2017-12-11T07:40:30.141Z,93.28
2017-12-11T07:41:30.195Z,93.09
2017-12-11T07:43:23.206Z,93.09
2017-12-11T07:44:23.233Z,94.04
2017-12-11T07:46:16.212Z,93.47
2017-12-11T07:47:16.259Z,93.47
2017-12-11T07:49:09.255Z,93.56
2017-12-11T07:50:09.292Z,93.75
2017-12-11T07:52:02.286Z,93.75
2017-12-11T07:53:02.322Z,93.56
2017-12-11T07:54:55.289Z,93.75
2017-12-11T07:55:55.345Z,93.75
2017-12-11T07:57:48.334Z,93.94
2017-12-11T07:58:48.377Z,93.75
2017-12-11T08:00:41.344Z,94.04
2017-12-11T08:01:41.396Z,93.85
2017-12-11T08:03:34.394Z,93.75
2017-12-11T08:04:34.428Z,93.85
2017-12-11T08:06:27.400Z,93.85
2017-12-11T08:07:27.476Z,93.94
2017-12-11T08:09:20.462Z,93.85
2017-12-11T08:10:20.480Z,93.85
2017-12-11T08:12:13.476Z,93.85
2017-12-11T08:13:13.509Z,93.75
2017-12-11T08:15:06.492Z,93.66
2017-12-11T08:16:06.545Z,93.47
2017-12-11T08:17:59.531Z,93.85
2017-12-11T08:18:59.565Z,93.94
2017-12-11T08:20:53.051Z,93.94
2017-12-11T08:21:53.098Z,94.23
2017-12-11T08:23:46.101Z,93.66
2017-12-11T08:24:46.148Z,93.94
2017-12-11T08:26:39.107Z,93.94
2017-12-11T08:27:39.158Z,94.23
2017-12-11T08:29:32.159Z,94.04
2017-12-11T08:30:32.185Z,94.42
2017-12-11T08:32:25.186Z,94.32
2017-12-11T08:33:25.214Z,93.47
2017-12-11T08:35:18.188Z,94.32
2017-12-11T08:36:18.241Z,93.66
2017-12-11T08:38:11.239Z,93.94
2017-12-11T08:39:11.280Z,94.23
2017-12-11T08:41:04.244Z,94.51
2017-12-11T08:42:04.298Z,93.85
2017-12-11T08:43:57.314Z,94.51
2017-12-11T08:44:57.334Z,93.75
2017-12-11T08:46:50.344Z,93.37
2017-12-11T08:47:50.362Z,93.66
2017-12-11T08:49:43.358Z,94.32
2017-12-11T08:50:43.422Z,94.32
2017-12-11T08:52:36.384Z,93.56
2017-12-11T08:53:36.414Z,94.51
2017-12-11T08:55:29.385Z,94.04
2017-12-11T08:56:29.440Z,93.47
2017-12-11T08:58:22.437Z,94.51
2017-12-11T08:59:22.502Z,94.60
2017-12-11T09:01:15.444Z,94.32
2017-12-11T09:02:15.498Z,94.51
2017-12-11T09:04:08.490Z,94.60
2017-12-11T09:05:08.537Z,94.42
2017-12-11T09:07:02.010Z,94.70
2017-12-11T09:08:02.058Z,94.60
2017-12-11T09:09:55.051Z,94.42
2017-12-11T09:10:55.084Z,94.32
2017-12-11T09:12:48.109Z,94.89
2017-12-11T09:13:48.115Z,94.51
2017-12-11T09:15:41.091Z,94.79
2017-12-11T09:16:41.145Z,94.98
2017-12-11T09:18:34.143Z,94.89
2017-12-11T09:19:34.177Z,94.70
2017-12-11T09:21:27.233Z,94.79
2017-12-11T09:22:28.190Z,94.79
2017-12-11T09:24:20.198Z,94.70
2017-12-11T09:25:20.231Z,94.60
2017-12-11T09:27:13.204Z,94.98
2017-12-11T09:28:13.258Z,94.60
2017-12-11T09:30:06.253Z,94.51
2017-12-11T09:31:06.288Z,94.32
2017-12-11T09:32:59.292Z,94.98
2017-12-11T09:33:59.327Z,94.70
2017-12-11T09:35:52.301Z,94.79
2017-12-11T09:36:52.356Z,94.89
2017-12-11T09:38:45.347Z,94.32
2017-12-11T09:39:45.382Z,94.32
2017-12-11T09:41:38.352Z,94.79
2017-12-11T09:42:38.405Z,94.60
2017-12-11T09:44:31.459Z,94.51
2017-12-11T09:45:31.433Z,94.42
2017-12-11T09:47:24.442Z,94.32
2017-12-11T09:48:24.458Z,94.32
2017-12-11T09:50:17.448Z,94.70
2017-12-11T09:51:17.481Z,95.26
2017-12-11T09:53:10.514Z,95.26
2017-12-11T09:54:10.508Z,94.98
2017-12-11T09:56:03.487Z,95.45
2017-12-11T09:57:03.534Z,95.74
2017-12-11T09:58:56.543Z,95.55
2017-12-11T09:59:56.560Z,95.93
2017-12-11T10:01:49.532Z,95.74
2017-12-11T10:02:49.644Z,95.93
2017-12-11T10:04:42.611Z,95.83
2017-12-11T10:05:42.614Z,96.31
2017-12-11T10:07:35.680Z,96.59
2017-12-11T10:08:35.652Z,96.59
2017-12-11T10:10:28.709Z,96.97
2017-12-11T10:11:28.676Z,96.59
2017-12-11T10:13:21.714Z,96.40
2017-12-11T10:14:21.705Z,96.50
2017-12-11T10:16:14.684Z,96.40
2017-12-11T10:17:14.732Z,96.12
2017-12-11T10:19:07.725Z,96.31
2017-12-11T10:20:07.753Z,96.40
2017-12-11T10:22:00.752Z,96.12
2017-12-11T10:23:00.779Z,96.31
2017-12-11T10:24:53.795Z,96.21
2017-12-11T10:25:53.804Z,96.40
2017-12-11T10:27:46.776Z,96.59
2017-12-11T10:28:46.842Z,96.59
2017-12-11T10:30:39.856Z,96.59
2017-12-11T10:31:39.856Z,96.40
2017-12-11T10:33:32.876Z,96.78
2017-12-11T10:34:32.883Z,96.78
2017-12-11T10:36:25.864Z,96.59
2017-12-11T10:37:25.913Z,96.78
2017-12-11T10:39:18.940Z,96.59
2017-12-11T10:40:18.943Z,96.40
2017-12-11T10:42:12.004Z,97.25
2017-12-11T10:43:11.985Z,96.59
2017-12-11T10:45:05.036Z,96.97
2017-12-11T10:46:05.022Z,97.06
2017-12-11T10:47:58.062Z,96.88
2017-12-11T10:48:58.040Z,97.34
2017-12-11T10:50:51.036Z,97.34
2017-12-11T10:51:51.069Z,96.97
2017-12-11T10:53:44.098Z,97.25
2017-12-11T10:54:44.096Z,96.97
2017-12-11T10:56:37.099Z,97.44
2017-12-11T10:57:37.125Z,96.21
2017-12-11T10:59:30.121Z,96.78
2017-12-11T11:00:30.174Z,96.88
2017-12-11T11:02:23.212Z,96.78
2017-12-11T11:03:23.188Z,96.88
2017-12-11T11:05:16.186Z,96.50
2017-12-11T11:06:16.213Z,96.31
2017-12-11T11:08:09.185Z,96.50
2017-12-11T11:09:09.239Z,96.69
2017-12-11T11:11:02.236Z,96.31
2017-12-11T11:12:02.269Z,96.12
2017-12-11T11:13:55.260Z,96.02
2017-12-11T11:14:55.340Z,95.55
2017-12-11T11:16:48.264Z,95.64
2017-12-11T11:17:48.317Z,95.93
2017-12-11T11:19:41.311Z,95.45
2017-12-11T11:20:41.345Z,95.45
2017-12-11T11:22:34.317Z,95.26
2017-12-11T11:23:34.368Z,95.26
2017-12-11T11:25:27.362Z,95.45
2017-12-11T11:26:27.396Z,94.89
2017-12-11T11:28:20.370Z,95.17
2017-12-11T11:29:20.424Z,94.89
2017-12-11T11:31:13.415Z,94.89
2017-12-11T11:32:13.448Z,94.79
2017-12-11T11:34:06.440Z,94.70
2017-12-11T11:35:06.693Z,94.04
2017-12-11T11:36:59.450Z,94.32
2017-12-11T11:37:59.627Z,93.94
2017-12-11T11:39:52.493Z,93.94
2017-12-11T11:40:52.527Z,93.85
2017-12-11T11:42:45.502Z,93.37
2017-12-11T11:43:45.576Z,93.47
2017-12-11T11:45:38.572Z,93.28
2017-12-11T11:46:38.586Z,93.37
2017-12-11T11:48:31.566Z,93.28
2017-12-11T11:49:31.617Z,93.28
2017-12-11T11:51:24.603Z,93.09
2017-12-11T11:52:24.637Z,92.99
2017-12-11T11:54:17.673Z,92.80
2017-12-11T11:55:17.668Z,92.90
2017-12-11T11:57:10.640Z,92.90
2017-12-11T11:58:10.707Z,92.99
2017-12-11T12:00:03.693Z,92.71
2017-12-11T12:01:03.728Z,92.52
2017-12-11T12:02:56.704Z,92.33
2017-12-11T12:03:56.777Z,92.52
2017-12-11T12:05:49.749Z,92.71
2017-12-11T12:06:49.782Z,92.52
2017-12-11T12:08:42.798Z,92.71
2017-12-11T12:09:43.096Z,92.71
2017-12-11T12:11:35.817Z,92.05
2017-12-11T12:12:35.852Z,91.96
2017-12-11T12:14:28.839Z,92.05
2017-12-11T12:15:28.874Z,91.58
2017-12-11T12:17:21.854Z,91.67
2017-12-11T12:18:21.908Z,91.86
2017-12-11T12:20:14.905Z,91.96
2017-12-11T12:21:14.938Z,92.33
2017-12-11T12:23:07.913Z,91.77
2017-12-11T12:24:07.969Z,91.67
2017-12-11T12:26:00.963Z,91.48
2017-12-11T12:27:00.996Z,91.67
2017-12-11T12:29:05.655Z,91.48
2017-12-11T12:30:05.674Z,91.29
2017-12-11T12:31:58.645Z,91.20
2017-12-11T12:32:58.679Z,91.39
2017-12-11T12:34:51.673Z,91.29
2017-12-11T12:35:51.707Z,91.20
2017-12-11T12:37:44.691Z,91.01
2017-12-11T12:38:44.733Z,90.82
2017-12-11T12:40:37.733Z,90.63
2017-12-11T12:41:37.764Z,91.10
2017-12-11T12:43:30.736Z,90.53
2017-12-11T12:44:30.791Z,90.53
2017-12-11T12:46:23.787Z,90.63
2017-12-11T12:47:23.820Z,90.63
2017-12-11T12:49:16.792Z,90.53
2017-12-11T12:50:16.845Z,90.63
2017-12-11T12:52:11.382Z,90.63
2017-12-11T12:53:11.414Z,90.44
2017-12-11T12:55:04.506Z,90.82
2017-12-11T12:56:04.443Z,90.91
2017-12-11T12:57:57.417Z,90.63
2017-12-11T12:58:57.467Z,90.44
2017-12-11T13:00:50.459Z,90.44
2017-12-11T13:01:50.492Z,90.44
2017-12-11T13:03:43.473Z,90.16
2017-12-11T13:04:43.528Z,90.34
2017-12-11T13:06:37.045Z,90.34
2017-12-11T13:07:37.077Z,90.34
2017-12-11T13:09:30.056Z,90.44
2017-12-11T13:10:30.107Z,90.25
2017-12-11T13:12:23.097Z,89.87
2017-12-11T13:13:23.132Z,90.16
2017-12-11T13:15:16.126Z,89.97
2017-12-11T13:16:16.175Z,89.97
2017-12-11T13:18:09.132Z,89.97
2017-12-11T13:19:09.193Z,89.78
2017-12-11T13:21:02.178Z,89.87
2017-12-11T13:22:02.213Z,90.06
2017-12-11T13:23:55.190Z,89.97
2017-12-11T13:24:55.245Z,89.97
2017-12-11T13:26:48.234Z,90.06
2017-12-11T13:27:48.270Z,89.97
2017-12-11T13:29:41.238Z,90.16
2017-12-11T13:30:41.292Z,90.16
2017-12-11T13:32:34.282Z,90.25
2017-12-11T13:33:34.313Z,90.25
2017-12-11T13:35:27.329Z,89.87
2017-12-11T13:36:27.342Z,89.78
2017-12-11T13:38:20.311Z,89.21
2017-12-11T13:39:20.366Z,89.12
2017-12-11T13:41:13.378Z,89.69
2017-12-11T13:42:13.414Z,89.50
2017-12-11T13:44:06.391Z,89.31
2017-12-11T13:45:06.444Z,89.12
2017-12-11T13:46:59.432Z,89.31
2017-12-11T13:47:59.467Z,89.31
2017-12-11T13:49:52.540Z,89.02
2017-12-11T13:50:52.492Z,89.02
2017-12-11T13:52:45.483Z,89.40
2017-12-11T13:53:45.514Z,88.93
2017-12-11T13:55:38.625Z,89.12
2017-12-11T13:56:38.707Z,89.21
2017-12-11T13:58:31.632Z,88.83
2017-12-11T13:59:31.736Z,88.93
2017-12-11T14:01:24.673Z,89.50
2017-12-11T14:02:24.707Z,89.31
2017-12-11T14:04:17.685Z,89.40
2017-12-11T14:05:19.668Z,89.31
2017-12-11T14:07:10.730Z,89.02
2017-12-11T14:08:10.765Z,89.40
2017-12-11T14:10:03.771Z,89.31
2017-12-11T14:11:03.790Z,89.12
2017-12-11T14:12:56.772Z,89.31
2017-12-11T14:13:59.266Z,89.12
2017-12-11T14:15:49.818Z,89.31
2017-12-11T14:16:49.837Z,89.12
2017-12-11T14:18:42.812Z,89.40
2017-12-11T14:19:42.866Z,88.83
2017-12-11T14:21:35.865Z,89.02
2017-12-11T14:22:35.894Z,89.31
2017-12-11T14:24:28.864Z,88.83
2017-12-11T14:25:28.919Z,89.31
2017-12-11T14:27:21.928Z,89.02
2017-12-11T14:28:22.086Z,89.02
2017-12-11T14:30:14.951Z,89.02
2017-12-11T14:31:14.987Z,88.93
2017-12-11T14:33:07.958Z,88.83
2017-12-11T14:34:08.013Z,89.31
2017-12-11T14:36:01.006Z,89.02
2017-12-11T14:37:01.041Z,89.12
2017-12-11T14:38:54.022Z,89.12
2017-12-11T14:39:54.076Z,89.12
2017-12-11T14:41:47.069Z,88.74
2017-12-11T14:42:47.127Z,88.45
2017-12-11T14:44:40.076Z,88.74
2017-12-11T14:45:40.130Z,88.83
2017-12-11T14:47:33.123Z,88.74
2017-12-11T14:48:33.156Z,88.74
2017-12-11T14:50:26.652Z,88.74
2017-12-11T14:51:26.685Z,88.74
2017-12-11T14:53:19.659Z,88.64
2017-12-11T14:54:19.711Z,88.55
2017-12-11T14:56:12.706Z,88.64
2017-12-11T14:57:12.739Z,88.83
2017-12-11T14:59:05.713Z,88.36
2017-12-11T15:00:05.766Z,88.74
2017-12-11T15:01:58.758Z,88.45
2017-12-11T15:02:58.792Z,88.45
2017-12-11T15:04:51.768Z,88.55
2017-12-11T15:05:51.822Z,88.55
2017-12-11T15:07:44.818Z,88.55
2017-12-11T15:08:44.853Z,88.74
2017-12-11T15:10:37.847Z,88.17
2017-12-11T15:11:37.882Z,88.55
2017-12-11T15:13:30.855Z,88.64
2017-12-11T15:14:30.909Z,88.55
2017-12-11T15:16:23.902Z,88.74
2017-12-11T15:17:23.935Z,88.36
2017-12-11T15:19:17.035Z,88.36
2017-12-11T15:20:16.969Z,88.26
2017-12-11T15:22:14.332Z,88.36
2017-12-11T15:23:11.035Z,88.26
2017-12-11T15:25:03.991Z,88.55
2017-12-11T15:26:04.047Z,88.17
2017-12-11T15:27:57.040Z,87.98
2017-12-11T15:28:57.107Z,88.07
2017-12-11T15:30:50.111Z,87.79
2017-12-11T15:31:50.995Z,87.79
2017-12-11T15:33:43.076Z,87.88
2017-12-11T15:34:43.129Z,88.07
2017-12-11T15:36:36.139Z,87.60
2017-12-11T15:37:36.175Z,87.88
2017-12-11T15:39:29.761Z,87.70
2017-12-11T15:40:29.805Z,87.88
2017-12-11T15:42:22.799Z,87.98
2017-12-11T15:43:22.839Z,87.70
2017-12-11T15:45:15.879Z,87.70
2017-12-11T15:46:15.934Z,87.70
2017-12-11T15:48:08.925Z,87.32
2017-12-11T15:49:08.958Z,87.51
2017-12-11T15:51:01.979Z,87.79
2017-12-11T15:52:02.008Z,87.79
2017-12-11T15:53:55.190Z,87.51
2017-12-11T15:54:55.248Z,87.60
2017-12-11T15:56:48.467Z,87.70
2017-12-11T15:57:48.274Z,87.79
2017-12-11T15:59:41.382Z,87.88
2017-12-11T16:00:41.429Z,87.60
2017-12-11T16:02:34.478Z,87.60
2017-12-11T16:03:34.465Z,87.65
2017-12-11T16:05:27.444Z,87.36
2017-12-11T16:06:27.500Z,87.27
2017-12-11T16:08:20.490Z,87.23
2017-12-11T16:09:20.525Z,87.23
2017-12-11T16:11:13.518Z,87.27
2017-12-11T16:12:13.553Z,87.04
2017-12-11T16:14:06.526Z,87.04
2017-12-11T16:15:06.582Z,86.75
2017-12-11T16:16:59.576Z,87.04
2017-12-11T16:17:59.612Z,86.94
2017-12-11T16:19:52.577Z,86.94
2017-12-11T16:20:52.631Z,87.23
2017-12-11T16:22:45.657Z,87.04
2017-12-11T16:23:45.656Z,87.23
2017-12-11T16:25:38.632Z,87.32
2017-12-11T16:26:38.683Z,87.36
2017-12-11T16:28:31.679Z,86.85
2017-12-11T16:29:31.710Z,86.56
2017-12-11T16:31:24.707Z,86.60
2017-12-11T16:32:24.741Z,86.60
2017-12-11T16:34:17.714Z,86.32
2017-12-11T16:35:17.766Z,86.41
2017-12-11T16:37:10.764Z,86.41
2017-12-11T16:38:10.799Z,86.60
2017-12-11T16:40:03.780Z,86.51
2017-12-11T16:41:03.824Z,86.37
2017-12-11T16:42:56.820Z,86.51
2017-12-11T16:43:56.850Z,86.41
2017-12-11T16:45:49.834Z,86.70
2017-12-11T16:46:49.882Z,86.51
2017-12-11T16:48:42.877Z,86.51
2017-12-11T16:49:42.907Z,86.28
2017-12-11T16:51:35.903Z,86.13
2017-12-11T16:52:35.959Z,86.22
2017-12-11T16:54:28.914Z,86.32
2017-12-11T16:55:28.965Z,86.13
2017-12-11T16:57:21.963Z,85.90
2017-12-11T16:58:21.994Z,86.28
2017-12-11T17:00:15.480Z,86.18
2017-12-11T17:01:24.160Z,86.32
2017-12-11T17:03:08.544Z,86.37
2017-12-11T17:04:08.555Z,86.32
2017-12-11T17:06:02.068Z,86.09
2017-12-11T17:07:02.105Z,86.22
2017-12-11T17:09:06.785Z,86.09
2017-12-11T17:10:06.751Z,86.09
2017-12-11T17:11:59.745Z,86.18
2017-12-11T17:12:59.772Z,86.28
2017-12-11T17:14:52.744Z,86.28
2017-12-11T17:15:52.801Z,86.22
2017-12-11T17:17:45.813Z,86.22
2017-12-11T17:18:45.860Z,86.09
2017-12-11T17:20:46.450Z,86.18
2017-12-11T17:21:38.865Z,86.18
2017-12-11T17:23:31.949Z,86.22
2017-12-11T17:24:31.900Z,86.32
2017-12-11T17:26:24.894Z,86.18
2017-12-11T17:27:24.927Z,86.09
2017-12-11T17:29:17.925Z,85.99
2017-12-11T17:30:17.980Z,86.09
2017-12-11T17:32:10.968Z,85.61
2017-12-11T17:33:11.002Z,86.18
2017-12-11T17:35:03.983Z,85.99
2017-12-11T17:36:04.031Z,85.80
2017-12-11T17:37:57.022Z,85.85
2017-12-11T17:38:57.056Z,85.80
2017-12-11T17:40:50.028Z,85.90
2017-12-11T17:41:50.081Z,85.99
2017-12-11T17:43:43.073Z,85.94
2017-12-11T17:44:43.108Z,85.94
2017-12-11T17:46:36.111Z,85.94
2017-12-11T17:47:36.147Z,85.94
2017-12-11T17:49:29.129Z,86.04
2017-12-11T17:50:29.175Z,86.04
2017-12-11T17:52:22.175Z,85.94
2017-12-11T17:53:22.210Z,86.04
2017-12-11T17:55:15.694Z,85.94
2017-12-11T17:56:15.742Z,86.32
2017-12-11T17:58:08.750Z,85.75
2017-12-11T17:59:08.988Z,85.94
2017-12-11T18:01:01.755Z,86.04
2017-12-11T18:02:01.812Z,86.32
2017-12-11T18:03:54.799Z,86.04
2017-12-11T18:04:54.841Z,86.41
2017-12-11T18:06:47.825Z,85.47
2017-12-11T18:07:47.861Z,85.66
2017-12-11T18:09:40.835Z,85.75
2017-12-11T18:10:40.890Z,85.47
2017-12-11T18:12:33.881Z,85.85
2017-12-11T18:13:33.915Z,85.75
2017-12-11T18:15:26.890Z,85.85
2017-12-11T18:16:26.946Z,85.66
2017-12-11T18:18:19.945Z,86.04
2017-12-11T18:19:20.003Z,85.75
2017-12-11T18:21:12.972Z,85.94
2017-12-11T18:22:13.026Z,85.85
2017-12-11T18:24:06.018Z,85.66
2017-12-11T18:25:06.054Z,85.75
2017-12-11T18:26:59.044Z,85.85
2017-12-11T18:27:59.081Z,85.85
2017-12-11T18:29:52.056Z,85.66
2017-12-11T18:30:52.120Z,85.57
2017-12-11T18:32:45.109Z,85.28
2017-12-11T18:33:45.146Z,85.28